CheckWX is a tool to help pilots better visualize weather data.  It is not intended as a substitute for an official pre-flight weather briefing.

09:23:35 UTC

KECG METAR
Elizabeth City CG Air Station / Rgnl Airport
Elizabeth City, North Carolina, USA
Current

30 mins ago

KECG 210854Z AUTO 35018KT 10SM CLR M01/M08 A3035 RMK AO2 SLP276 T10061083 58011
Observed
Jan-21 @ 08:54 UTC
Wind
  • 350° at 18 KTS
Visibility
10 SM
Flight Rules
VFR
Cloud Levels
  • Clear skies
Temperature
-1°C / 30°F
Dewpoint
-8°C / 18°F
Humidity
59%
Altimeter
30.35" Hg
Pressure
1027.82 hPa
Previous

1 hour ago

KECG 210754Z AUTO 36018KT 10SM CLR M01/M09 A3036 RMK AO2 SLP282 T10061089
Observed
Jan-21 @ 07:54 UTC
Wind
  • 360° at 18 KTS
Visibility
10 SM
Flight Rules
VFR
Cloud Levels
  • Clear skies
Temperature
-1°C / 30°F
Dewpoint
-9°C / 16°F
Humidity
55%
Altimeter
30.36" Hg
Pressure
1028.12 hPa
Previous

2 hours ago

KECG 210654Z AUTO 36014KT 10SM CLR M01/M09 A3038 RMK AO2 SLP285 T10061094
Observed
Jan-21 @ 06:54 UTC
Wind
  • 360° at 14 KTS
Visibility
10 SM
Flight Rules
VFR
Cloud Levels
  • Clear skies
Temperature
-1°C / 30°F
Dewpoint
-9°C / 16°F
Humidity
55%
Altimeter
30.38" Hg
Pressure
1028.82 hPa